Latest Weather Observations for Latrobe Valley

IDV60801

Issued at 7:02 am EST Tuesday 4 August 2015 (issued every 30 minutes, with the page automatically refreshed every 10 minutes)

About weather observations | Map of weather stations | Latest weather observations for VIC | Other Formats
Station Details ID: 085280 Name: LATROBE VALLEY AIRPORT Lat: -38.21 Lon: 146.47 Height: 55.7 m
Data from the previous 72 hours. | See also: Recent months at Latrobe Valley
Date/Time
EST
Temp
°C
App
Temp
°C
Dew
Point
Rel
Hum
%
Delta-T
°C
Wind Press
QNH
hPa
Press
MSL
hPa
Rain
since 9 am
mm
Dir
 
Spd
km/h
Gust
km/h
Spd
kts
Gust
kts
04/07:00am 3.8 1.1 3.8 100 0.0 WNW 7 9 4 5 1022.5 1022.6 1.6
04/06:30am 4.0 0.6 4.0 100 0.0 SW 11 13 6 7 1022.5 1022.6 1.6
04/06:00am 4.3 1.3 4.2 99 0.0 WSW 9 13 5 7 1022.3 1022.4 1.6
04/05:30am 4.2 1.2 4.1 99 0.0 W 9 13 5 7 1022.0 1022.1 1.6
04/05:00am 4.1 1.1 4.0 99 0.0 WSW 9 11 5 6 1022.0 1022.1 1.6
04/04:30am 4.1 0.3 4.1 100 0.0 WSW 13 17 7 9 1022.1 1022.2 1.6
04/04:00am 3.2 0.4 3.2 100 0.0 WSW 7 13 4 7 1022.1 1022.2 1.6
04/03:30am 3.2 -0.4 3.2 100 0.0 WSW 11 17 6 9 1022.2 1022.3 1.4
04/03:00am 2.9 -1.5 2.9 100 0.0 WSW 15 19 8 10 1022.1 1022.2 1.4
04/02:30am 2.7 -0.9 2.7 100 0.0 SSW 11 15 6 8 1022.3 1022.4 1.4
04/02:00am 3.0 -1.0 3.0 100 0.0 W 13 17 7 9 1022.2 1022.3 1.4
04/01:30am 2.2 -1.1 2.2 100 0.0 WSW 9 13 5 7 1022.4 1022.5 1.4
04/01:00am 2.5 -0.8 2.5 100 0.0 SW 9 13 5 7 1022.4 1022.5 1.4
04/12:30am 2.3 -1.4 2.3 100 0.0 W 11 15 6 8 1022.6 1022.7 1.4
04/12:00am 2.1 -0.7 2.1 100 0.0 SW 6 7 3 4 1022.8 1022.9 1.4
 
Date/Time
EST
Temp
°C
App
Temp
°C
Dew
Point
Rel
Hum
%
Delta-T
°C
Wind Press
QNH
hPa
Press
MSL
hPa
Rain
since 9 am
mm
Dir
 
Spd
km/h
Gust
km/h
Spd
kts
Gust
kts
03/11:30pm 3.1 0.3 3.1 100 0.0 SSW 7 9 4 5 1022.8 1022.9 1.4
03/11:00pm 3.0 -0.6 3.0 100 0.0 WSW 11 15 6 8 1022.8 1022.9 1.4
03/10:30pm 2.8 -1.2 2.8 100 0.0 SW 13 15 7 8 1022.9 1023.0 1.4
03/10:00pm 3.9 0.9 3.9 100 0.0 SW 9 15 5 8 1022.8 1022.9 1.4
03/09:30pm 4.0 0.2 4.0 100 0.0 WSW 13 17 7 9 1022.7 1022.8 1.4
03/09:00pm 4.4 0.7 4.3 99 0.0 W 13 17 7 9 1022.5 1022.6 1.4
03/08:30pm 4.6 0.9 4.6 100 0.0 WNW 13 17 7 9 1022.4 1022.5 1.4
03/08:00pm 4.1 0.7 4.1 100 0.0 W 11 20 6 11 1022.4 1022.5 1.4
03/07:30pm 4.0 0.6 4.0 100 0.0 SSW 11 19 6 10 1022.2 1022.3 1.4
03/07:00pm 3.8 0.4 3.8 100 0.0 WNW 11 17 6 9 1021.7 1021.8 1.4
03/06:30pm 4.1 0.3 4.1 100 0.0 WNW 13 19 7 10 1021.4 1021.5 1.2
03/06:00pm 4.5 -0.3 4.4 99 0.0 WSW 19 26 10 14 1021.1 1021.2 1.2
03/05:58pm 4.4 -0.5 4.3 99 0.0 WSW 19 26 10 14 1021.1 1021.2 1.2
03/05:44pm 5.3 -1.1 5.2 99 0.0 W 28 35 15 19 1020.8 1020.9 1.2
03/05:30pm 5.8 0.8 4.8 93 0.4 WNW 20 26 11 14 1020.2 1020.3 0.8
03/05:00pm 5.8 0.9 4.1 89 0.7 W 19 24 10 13 1019.6 1019.7 0.8
03/04:30pm 6.5 0.8 4.8 89 0.7 W 24 35 13 19 1019.4 1019.5 0.8
03/04:06pm 5.4 0.1 5.1 98 0.1 W 22 30 12 16 1019.0 1019.1 0.8
03/04:00pm 5.3 -1.2 4.9 97 0.2 W 28 41 15 22 1018.8 1018.9 0.8
03/03:50pm 5.4 -3.1 5.1 98 0.1 WSW 39 57 21 31 1018.9 1019.0 0.8
03/03:45pm 6.3 -1.6 4.1 86 0.9 W 35 57 19 31 1018.7 1018.8 0.8
03/03:30pm 6.4 -2.0 3.9 84 1.1 WSW 37 52 20 28 1018.4 1018.5 0.8
03/03:01pm 8.9 0.6 2.3 63 2.8 W 35 54 19 29 1017.8 1017.9 0.8
03/03:00pm 8.9 0.2 2.3 63 2.8 W 37 54 20 29 1017.8 1017.9 0.8
03/02:52pm 8.8 1.1 3.2 68 2.4 W 33 54 18 29 1017.6 1017.7 0.8
03/02:30pm 7.0 0.0 4.3 83 1.2 WSW 30 37 16 20 1017.7 1017.8 0.8
03/02:00pm 6.2 -1.1 4.4 88 0.8 SSW 32 52 17 28 1017.6 1017.7 0.8
03/01:58pm 6.4 -0.5 4.6 88 0.8 SSW 30 52 16 28 1017.6 1017.7 0.8
03/01:30pm 8.8 3.3 5.9 82 1.3 W 24 35 13 19 1017.1 1017.2 0.8
03/01:08pm 6.4 -0.3 5.8 96 0.3 W 30 39 16 21 1017.3 1017.4 0.8
03/01:01pm 5.5 -1.2 5.4 99 0.0 WSW 30 48 16 26 1017.2 1017.3 0.6
03/01:00pm 5.5 -1.6 5.4 99 0.0 WSW 32 48 17 26 1017.2 1017.3 0.6
03/12:51pm 5.2 -3.3 5.1 99 0.0 WSW 39 56 21 30 1017.5 1017.6 0.6
03/12:44pm 6.0 -1.2 4.8 92 0.5 WSW 32 56 17 30 1017.5 1017.6 0.4
03/12:42pm 6.9 0.5 5.1 88 0.8 W 28 46 15 25 1017.4 1017.5 0.4
03/12:30pm 6.8 -0.5 4.6 86 1.0 W 32 43 17 23 1017.1 1017.2 0.4
03/12:09pm 7.3 -2.4 2.6 72 2.0 WSW 43 61 23 33 1016.8 1016.9 0.2
03/12:00pm 7.9 -1.7 3.2 72 2.0 WSW 43 57 23 31 1016.6 1016.7 0.2
03/11:35am 7.6 0.5 3.8 77 1.6 WSW 30 54 16 29 1016.4 1016.5 0.2
03/11:30am 7.3 1.8 6.1 92 0.5 W 24 33 13 18 1016.4 1016.5 0.2
03/11:00am 7.7 1.7 7.0 95 0.3 WNW 28 39 15 21 1016.0 1016.1 0.2
03/10:30am 6.4 -0.7 5.7 95 0.3 W 32 48 17 26 1015.9 1016.0 0.2
03/10:19am 6.0 -0.4 5.3 95 0.3 W 28 46 15 25 1015.6 1015.7 0.2
03/10:00am 5.8 -0.1 5.7 99 0.0 WNW 26 39 14 21 1015.4 1015.4 0.2
03/09:30am 5.4 -2.8 4.7 95 0.3 W 37 52 20 28 1014.8 1014.8 0.2
03/09:00am 5.8 -1.3 5.4 97 0.2 WSW 32 50 17 27 1014.7 1014.7 9.6
03/08:53am 6.1 -0.6 5.7 97 0.2 WSW 30 39 16 21 1014.4 1014.4 9.6
03/08:51am 6.1 -0.6 5.5 96 0.3 WSW 30 39 16 21 1014.2 1014.2 9.6
03/08:37am 5.2 -2.0 5.2 100 0.0 WSW 32 46 17 25 1014.1 1014.1 9.6
03/08:33am 5.9 -0.4 5.9 100 0.0 W 28 39 15 21 1013.8 1013.8 9.4
03/08:30am 5.8 -0.9 5.8 100 0.0 W 30 41 16 22 1013.6 1013.6 9.2
03/08:00am 5.6 -1.7 5.6 100 0.0 WNW 33 46 18 25 1012.7 1012.8 8.8
03/07:30am 5.0 -1.8 5.0 100 0.0 WNW 30 43 16 23 1011.9 1012.0 8.8
03/07:14am 5.3 -1.1 5.3 100 0.0 W 28 39 15 21 1011.9 1012.0 8.8
03/07:00am 5.6 -1.7 5.6 100 0.0 W 33 46 18 25 1011.3 1011.4 8.4
03/06:49am 5.9 -1.3 5.8 99 0.0 W 33 52 18 28 1011.1 1011.2 7.4
03/06:41am 5.7 -1.4 5.7 100 0.0 W 32 48 17 26 1010.9 1011.0 7.2
03/06:36am 5.5 -1.2 5.5 100 0.0 WNW 30 48 16 26 1010.8 1010.9 7.2
03/06:30am 5.4 -1.3 5.4 100 0.0 WNW 30 39 16 21 1010.8 1010.9 7.0
03/06:00am 5.1 -4.4 5.1 100 0.0 W 44 65 24 35 1010.2 1010.3 6.0
03/05:30am 7.7 -0.6 7.6 99 0.0 W 41 59 22 32 1009.4 1009.5 3.0
03/05:27am 7.7 -0.3 7.6 99 0.0 WNW 39 59 21 32 1009.4 1009.5 3.0
03/05:08am 8.0 1.2 7.6 97 0.2 WNW 33 52 18 28 1009.1 1009.2 2.8
03/05:00am 8.1 1.4 7.5 96 0.3 WNW 32 48 17 26 1009.1 1009.2 2.8
03/04:30am 7.7 0.5 7.6 99 0.0 WNW 35 54 19 29 1008.8 1008.9 2.8
03/04:20am 7.7 0.1 7.7 100 0.0 WNW 37 56 20 30 1008.7 1008.8 2.6
03/04:07am 7.7 -0.3 7.6 99 0.0 WNW 39 57 21 31 1008.8 1008.9 2.6
03/04:00am 7.9 -1.3 7.8 99 0.0 WNW 46 61 25 33 1008.7 1008.8 2.6
03/03:30am 8.5 0.4 6.8 89 0.8 WNW 39 61 21 33 1008.4 1008.5 2.4
03/03:00am 8.7 0.1 6.7 87 0.9 WNW 41 65 22 35 1008.6 1008.7 2.4
03/02:30am 8.8 -0.1 6.8 87 0.9 WNW 43 63 23 34 1008.9 1009.0 2.4
03/02:01am 9.8 0.7 5.8 76 1.8 WNW 43 61 23 33 1008.7 1008.8 2.4
03/02:00am 9.7 0.6 5.9 77 1.8 WNW 43 59 23 32 1008.7 1008.8 2.4
03/01:33am 9.8 2.6 6.0 77 1.8 WNW 33 54 18 29 1008.9 1009.0 2.4
03/01:30am 9.4 2.4 6.1 80 1.5 WNW 32 46 17 25 1009.1 1009.2 2.4
03/01:16am 9.4 2.5 6.3 81 1.4 WNW 32 52 17 28 1009.1 1009.2 2.4
03/01:00am 9.3 2.7 6.0 80 1.5 WNW 30 39 16 21 1009.3 1009.4 2.4
03/12:30am 9.1 1.1 5.8 80 1.5 WNW 37 52 20 28 1009.7 1009.8 2.4
03/12:00am 9.0 1.1 6.3 83 1.2 WNW 37 54 20 29 1009.6 1009.7 2.4
 
Date/Time
EST
Temp
°C
App
Temp
°C
Dew
Point
Rel
Hum
%
Delta-T
°C
Wind Press
QNH
hPa
Press
MSL
hPa
Rain
since 9 am
mm
Dir
 
Spd
km/h
Gust
km/h
Spd
kts
Gust
kts
02/11:57pm 8.9 1.4 6.3 84 1.2 WNW 35 54 19 29 1009.5 1009.6 2.4
02/11:30pm 9.1 2.2 7.4 89 0.8 WNW 33 44 18 24 1009.6 1009.7 2.4
02/11:00pm 8.9 2.2 8.0 94 0.4 W 33 46 18 25 1009.7 1009.8 2.4
02/10:30pm 9.0 2.8 7.9 93 0.5 W 30 39 16 21 1009.8 1009.9 2.4
02/10:00pm 8.7 3.4 8.6 99 0.0 WNW 26 37 14 20 1010.0 1010.1 2.4
02/09:43pm 8.4 3.9 8.4 100 0.0 WNW 22 32 12 17 1010.1 1010.2 2.4
02/09:30pm 8.3 3.7 8.3 100 0.0 WNW 22 33 12 18 1010.1 1010.2 2.4
02/09:00pm 8.4 4.4 8.4 100 0.0 W 19 30 10 16 1010.4 1010.5 2.4
02/08:49pm 8.4 3.5 8.4 100 0.0 W 24 33 13 18 1010.4 1010.5 2.2
02/08:47pm 8.4 3.5 8.4 100 0.0 W 24 33 13 18 1010.4 1010.5 2.2
02/08:39pm 8.4 2.7 8.4 100 0.0 W 28 46 15 25 1010.3 1010.4 2.2
02/08:37pm 8.4 2.3 8.4 100 0.0 W 30 46 16 25 1010.3 1010.4 2.2
02/08:31pm 8.6 2.0 8.6 100 0.0 WNW 33 52 18 28 1010.2 1010.3 2.0
02/08:30pm 8.6 2.0 8.6 100 0.0 WNW 33 52 18 28 1010.2 1010.3 2.0
02/08:21pm 8.6 2.2 8.6 100 0.0 WNW 32 50 17 27 1010.1 1010.2 2.0
02/08:18pm 8.7 2.7 8.7 100 0.0 WNW 30 50 16 27 1010.0 1010.1 2.0
02/08:08pm 8.6 3.0 8.6 100 0.0 W 28 35 15 19 1010.1 1010.2 2.0
02/08:00pm 8.6 2.0 8.6 100 0.0 W 33 50 18 27 1010.0 1010.1 2.0
02/07:51pm 8.7 1.8 8.7 100 0.0 W 35 54 19 29 1010.1 1010.2 2.0
02/07:30pm 8.8 1.1 8.8 100 0.0 W 39 54 21 29 1009.8 1009.9 1.4
02/07:00pm 8.9 1.6 8.9 100 0.0 W 37 59 20 32 1009.7 1009.8 0.4
02/06:59pm 8.9 2.0 8.9 100 0.0 W 35 59 19 32 1009.6 1009.7 0.4
02/06:57pm 9.0 2.1 9.0 100 0.0 W 35 50 19 27 1009.6 1009.7 0.2
02/06:30pm 9.2 3.3 8.9 98 0.1 W 30 39 16 21 1009.0 1009.1 0.2
02/06:00pm 9.4 3.2 8.0 91 0.7 WSW 30 37 16 20 1008.7 1008.8 0.0
02/05:30pm 10.5 3.5 7.0 79 1.7 WNW 33 46 18 25 1008.0 1008.1 0.0
02/05:00pm 11.5 4.9 6.2 70 2.5 WNW 30 43 16 23 1007.4 1007.5 0.0
02/04:30pm 11.6 4.4 6.1 69 2.6 NW 33 56 18 30 1007.3 1007.4 0.0
02/04:00pm 12.4 4.5 6.2 66 2.9 WNW 37 56 20 30 1007.2 1007.3 0.0
02/03:56pm 12.5 4.9 5.9 64 3.1 WNW 35 56 19 30 1007.3 1007.4 0.0
02/03:30pm 12.0 4.5 6.1 67 2.8 WNW 35 50 19 27 1007.8 1007.9 0.0
02/03:15pm 11.9 4.0 6.0 67 2.8 WNW 37 56 20 30 1007.7 1007.8 0.0
02/03:00pm 11.9 4.0 6.0 67 2.8 WNW 37 50 20 27 1007.7 1007.8 0.0
02/02:30pm 12.0 3.7 5.9 66 2.9 WNW 39 48 21 26 1007.7 1007.8 0.0
02/02:06pm 12.0 4.1 6.1 67 2.8 WNW 37 57 20 31 1007.6 1007.7 0.0
02/02:00pm 12.4 4.6 6.5 67 2.8 WNW 37 52 20 28 1007.7 1007.8 0.0
02/01:30pm 12.2 5.3 6.5 68 2.7 WNW 32 46 17 25 1008.1 1008.2 0.0
02/01:00pm 11.2 3.7 6.1 71 2.4 WNW 35 52 19 28 1008.7 1008.8 0.0
02/12:30pm 12.2 4.5 7.1 71 2.5 W 37 59 20 32 1009.2 1009.3 0.0
02/12:16pm 12.0 4.4 7.5 74 2.2 WNW 37 56 20 30 1009.6 1009.7 0.0
02/12:00pm 11.5 2.9 6.6 72 2.3 W 41 57 22 31 1009.8 1009.9 0.0
02/11:30am 11.4 4.0 6.7 73 2.2 WNW 35 54 19 29 1010.4 1010.5 0.0
02/11:26am 11.6 4.2 6.9 73 2.2 W 35 54 19 29 1010.5 1010.6 0.0
02/11:00am 10.3 3.4 6.3 76 1.9 WNW 32 43 17 23 1011.0 1011.1 0.0
02/10:30am 10.4 4.2 6.0 74 2.0 WNW 28 39 15 21 1011.3 1011.4 0.0
02/10:20am 9.9 3.7 6.1 77 1.8 WNW 28 43 15 23 1011.3 1011.4 0.0
02/10:00am 9.7 5.6 6.4 80 1.5 WNW 17 24 9 13 1011.3 1011.4 0.0
02/09:30am 8.3 5.0 6.4 88 0.9 WNW 13 19 7 10 1011.6 1011.7 0.0
02/09:00am 7.3 3.9 5.8 90 0.7 W 13 17 7 9 1012.0 1012.1 1.4
02/08:30am 7.3 4.7 6.1 92 0.5 W 9 17 5 9 1012.4 1012.5 1.4
02/08:00am 6.5 3.5 5.9 96 0.3 WSW 11 17 6 9 1012.7 1012.8 1.4
02/07:30am 6.2 3.5 5.8 97 0.2 WSW 9 15 5 8 1012.5 1012.6 1.4
02/07:00am 6.2 3.9 5.9 98 0.1 WNW 7 9 4 5 1012.6 1012.7 1.4
02/06:30am 6.2 3.9 5.8 97 0.2 W 7 9 4 5 1012.7 1012.8 1.4
02/06:00am 5.9 3.2 5.8 99 0.0 W 9 13 5 7 1012.7 1012.8 1.4
02/05:30am 5.7 3.4 5.6 99 0.0 W 7 9 4 5 1012.4 1012.5 1.4
02/05:00am 6.0 3.7 5.9 99 0.0 W 7 13 4 7 1012.4 1012.5 1.4
02/04:30am 5.9 4.2 5.8 99 0.0 WNW 4 7 2 4 1012.6 1012.7 1.4
02/04:00am 5.7 3.4 5.6 99 0.0 NW 7 9 4 5 1012.9 1013.0 1.4
02/03:30am 5.4 3.2 5.3 99 0.0 W 6 7 3 4 1013.4 1013.4 1.4
02/03:00am 5.5 2.4 5.4 99 0.0 WSW 11 13 6 7 1013.9 1013.9 1.4
02/02:30am 5.1 2.7 5.1 100 0.0 W 7 9 4 5 1014.0 1014.0 1.4
02/02:00am 5.2 2.0 5.2 100 0.0 WNW 11 13 6 7 1014.3 1014.3 1.4
02/01:30am 5.3 2.9 5.2 99 0.0 W 7 9 4 5 1014.4 1014.4 1.4
02/01:00am 5.0 2.1 4.9 99 0.0 WSW 9 13 5 7 1015.1 1015.1 1.4
02/12:30am 4.3 0.6 4.3 100 0.0 WSW 13 15 7 8 1015.3 1015.3 1.4
02/12:00am 4.7 2.2 4.7 100 0.0 WSW 7 11 4 6 1015.1 1015.1 1.4
 
Date/Time
EST
Temp
°C
App
Temp
°C
Dew
Point
Rel
Hum
%
Delta-T
°C
Wind Press
QNH
hPa
Press
MSL
hPa
Rain
since 9 am
mm
Dir
 
Spd
km/h
Gust
km/h
Spd
kts
Gust
kts
01/11:30pm 4.5 2.9 4.5 100 0.0 WSW 2 6 1 3 1015.4 1015.4 1.4
01/11:00pm 4.9 2.0 4.8 99 0.0 WNW 9 11 5 6 1015.3 1015.3 1.4
01/10:30pm 5.4 3.0 5.3 99 0.0 SSW 7 7 4 4 1015.9 1016.0 1.4
01/10:00pm 5.7 3.6 5.6 99 0.0 W 6 7 3 4 1015.9 1016.0 1.4
01/09:30pm 5.9 3.7 5.3 96 0.3 SW 6 7 3 4 1015.7 1015.8 1.4
01/09:00pm 6.0 3.9 5.9 99 0.0 SSW 6 7 3 4 1015.8 1015.9 1.4
01/08:30pm 6.4 5.4 5.8 96 0.3 CALM 0 0 0 0 1015.7 1015.8 1.4
01/08:00pm 6.7 3.3 6.0 95 0.3 W 13 15 7 8 1015.8 1015.9 1.4
01/07:30pm 6.7 3.3 6.0 95 0.3 WNW 13 17 7 9 1015.9 1016.0 1.4
01/07:00pm 6.6 3.2 6.0 96 0.3 WNW 13 15 7 8 1015.7 1015.8 1.4
01/06:30pm 6.7 3.6 5.5 92 0.5 WNW 11 11 6 6 1015.4 1015.4 1.4
01/06:00pm 6.8 4.1 5.6 92 0.5 NW 9 11 5 6 1015.1 1015.1 1.4
01/05:30pm 7.4 4.3 5.4 87 0.9 WSW 11 13 6 7 1014.8 1014.8 1.4
01/05:00pm 8.4 5.2 5.3 81 1.4 WSW 11 17 6 9 1014.5 1014.5 1.4
01/04:30pm 9.0 5.6 6.1 82 1.3 W 13 17 7 9 1014.4 1014.4 1.4
01/04:00pm 9.4 5.8 6.7 83 1.3 W 15 20 8 11 1014.2 1014.2 1.4
01/03:30pm 9.8 6.0 7.7 87 1.0 WNW 17 22 9 12 1013.8 1013.8 1.4
01/03:00pm 9.5 6.1 9.0 97 0.2 WNW 17 20 9 11 1013.6 1013.6 1.4
01/02:30pm 9.5 5.2 9.2 98 0.1 WNW 22 30 12 16 1013.3 1013.3 1.4
01/02:00pm 9.3 5.0 9.2 99 0.0 WNW 22 28 12 15 1013.0 1013.1 1.4
01/01:30pm 8.8 3.6 8.7 99 0.0 WNW 26 33 14 18 1012.8 1012.9 1.4
01/01:00pm 8.5 3.6 8.4 99 0.0 WNW 24 32 13 17 1012.9 1013.0 1.4
01/12:59pm 8.4 3.1 8.3 99 0.0 WNW 26 33 14 18 1012.9 1013.0 1.4
01/12:30pm 8.3 2.6 8.3 100 0.0 W 28 39 15 21 1013.5 1013.5 1.2
01/12:22pm 8.9 4.5 8.9 100 0.0 W 22 32 12 17 1013.4 1013.4 1.2
01/12:00pm 9.2 5.2 9.2 100 0.0 W 20 28 11 15 1013.1 1013.2 1.2
01/11:30am 9.2 4.3 8.6 96 0.3 W 24 33 13 18 1013.0 1013.1 1.2
01/11:05am 9.0 3.4 8.9 99 0.0 WSW 28 37 15 20 1013.1 1013.2 1.2
01/11:00am 8.9 2.9 8.8 99 0.0 WSW 30 39 16 21 1013.1 1013.2 1.2
01/10:31am 9.3 5.0 9.3 100 0.0 WSW 22 30 12 16 1012.3 1012.4 1.2
01/10:30am 9.4 5.1 9.4 100 0.0 WSW 22 30 12 16 1012.2 1012.3 1.2
01/10:13am 9.3 4.2 9.3 100 0.0 WSW 26 33 14 18 1011.8 1011.9 1.2
01/10:06am 9.4 4.4 9.4 100 0.0 WSW 26 37 14 20 1011.6 1011.7 1.2
01/10:00am 9.5 4.5 9.5 100 0.0 WSW 26 35 14 19 1011.5 1011.6 1.2
01/09:31am 10.6 7.0 10.6 100 0.0 W 20 32 11 17 1010.5 1010.6 0.8
01/09:30am 10.6 7.0 10.6 100 0.0 W 20 32 11 17 1010.5 1010.6 0.6
01/09:14am 10.6 6.3 10.6 100 0.0 W 24 35 13 19 1010.2 1010.3 0.4
01/09:00am 10.7 6.4 10.7 100 0.0 W 24 35 13 19 1010.0 1010.1 2.8
01/08:44am 10.5 6.9 10.5 100 0.0 W 20 30 11 16 1009.7 1009.8 2.6
01/08:30am 10.6 6.3 10.6 100 0.0 WSW 24 32 13 17 1009.4 1009.5 2.2
01/08:14am 10.7 7.3 10.7 100 0.0 WSW 19 22 10 12 1009.0 1009.1 1.4
01/08:00am 11.1 7.9 11.1 100 0.0 W 19 24 10 13 1008.4 1008.5 0.8
01/07:30am 11.5 7.0 11.3 99 0.1 W 26 37 14 20 1007.8 1007.9 0.6
01/07:19am 11.4 6.5 11.2 99 0.1 W 28 43 15 23 1007.8 1007.9 0.4

Other Formats:

Comma delimited format used in spreadsheet applications
http://www.bom.gov.au/fwo/IDV60801/IDV60801.94891.axf

JavaScript Object Notation format (JSON) in row-major order
http://www.bom.gov.au/fwo/IDV60801/IDV60801.94891.json